AirNav   Everest Fuels
 
 653 users online  

6KY8 Gateway Industrial Park Heliport
Jenkins, Kentucky, USA

GOING TO JENKINS?


FAA INFORMATION EFFECTIVE 16 JULY 2020

Location

FAA Identifier: 6KY8
Lat/Long: 37-09-35.9000N 082-39-49.6000W
37-09.598333N 082-39.826667W
37.1599722,-82.6637778
(estimated)
Elevation: 1770 ft. / 539 m (estimated)
From city: 3 miles SW of JENKINS, KY
Time zone: UTC -4 (UTC -5 during Standard Time)
Zip code: 41825

Heliport Operations

Heliport use: Private use. Permission required prior to landing
Activation date: 10/2010
Control tower: no
ARTCC: INDIANAPOLIS CENTER
FSS: LOUISVILLE FLIGHT SERVICE STATION
Attendance: UNATNDD
Wind indicator: yes
Segmented circle: no
Lights: SS-SR

Heliport Communications

WX AWOS-3 at LNP (12 nm SE): 118.6 (276-328-3727)

Nearby radio navigation aids

VOR radial/distance  VOR name  Freq  Var
AZQr120/31.8HAZARD VOR/DME111.2004W
GZGr308/34.5GLADE SPRING VOR/DME110.2002W

Heliport Services

Fuel available: A

Runway Information

Helipad H1

Dimensions: 40 x 40 ft. / 12 x 12 m
Surface: concrete
Runway edge lights: PERI
Latitude: 37-09.598333N
Longitude: 082-39.826667W
Elevation: 1770.0 ft.
Traffic pattern: leftleft
Obstructions: bldg
26 FT BLDG 30 FT SE OF PAD.

Heliport Ownership and Management from official FAA records

Ownership: Publicly-owned
Owner: LETCHER COUNTY FISCAL COURT
156 MAIN ST
WHITESBURG, KY 41858
Phone 606-633-2129
Manager: COUNTY JUDGE EXECUTIVE
156 MAIN ST., SUITE 107
WHITESBURG, KY 41858
Phone 606-633-2129

Heliport Operational Statistics

Aircraft based on the field: 1
Helicopters: 1
    

Additional Remarks

OWNER DESIRES ARPT NOT BE CHARTED.
FOR CD CTC INDIANAPOLIS ARTCC AT 317-247-2411.

Instrument Procedures

There are no published instrument procedures at 6KY8.

Some nearby airports with instrument procedures:

KLNP - Lonesome Pine Airport (12 nm SE)
KPBX - Pike County Airport-Hatcher Field (25 nm N)
KCPF - Wendell H Ford Airport (32 nm NW)
KSJS - Big Sandy Regional Airport (35 nm N)
I35 - Tucker-Guthrie Memorial Airport (38 nm SW)
 
Loc | Ops | Rwys | IFR | FBO | Links
Com | Nav | Svcs | Stats | Notes
Aerial photo
No photo
 
Sectional chart

 
Airport distance calculator
Flying to Gateway Industrial Park Heliport? Find the distance to fly.

From to 6KY8

Sunrise and sunset
Times for 11-Aug-2020
 Local
(UTC-4)
 Zulu
(UTC)
Morning civil twilight06:1810:18
Sunrise06:4610:46
Sunset20:2600:26
Evening civil twilight20:5400:54

Current date and time
Zulu (UTC)  11-Aug-2020 11:37:01
Local (UTC-4)  11-Aug-2020 07:37:01
 
METAR
KLNP 
14nm SE 
111115Z AUTO 00000KT 10SM BKN100 20/20 A3009 RMK AO2
KPBX 
25nm N 
111115Z AUTO 15003KT 10SM CLR 21/21 A3000 RMK AO2 T02050205
TAF
KSJS 
35nm N 
110535Z 1106/1206 00000KT P6SM VCSH OVC040 FM110800 00000KT P6SM SCT090 FM111300 VRB03KT P6SM SCT024 FM111900 VRB03KT P6SM VCTS SCT050CB
KJKL 
41nm NW 
110822Z 1108/1206 VRB03KT 1/4SM FG OVC002 FM111100 VRB03KT P6SM SCT040 FM111800 00000KT P6SM BKN050
KTRI 
43nm S 
110936Z 1110/1206 00000KT P6SM BKN020 OVC030 FM111400 VRB03KT P6SM BKN050 FM111600 25005KT P6SM VCTS SCT050CB PROB30 1119/1123 5SM TSRA BR BKN045CB FM120100 00000KT P6SM FEW050 BKN150
NOTAMs
Click for the latest NOTAMs
NOTAMs are issued by the DoD/FAA and will open in a separate window not controlled by AirNav.

 

 
 

Would you like to see your business listed on this page?

 If your business provides an interesting product or service to pilots, flight crews, aircraft, or users of the Gateway Industrial Park Heliport, you should consider listing it here.  To start the listing process, click on the button below
 
Add a business
 

Other Pages about Gateway Industrial Park Heliport

Update a link
 
Copyright © AirNav, LLC. All rights reserved. Privacy Policy  Contact